createdAt,value
2022-11-04T00:01:18.782Z,100.00
2022-11-04T00:03:45.231Z,100.00
2022-11-04T00:06:11.726Z,100.00
2022-11-04T00:08:38.208Z,100.00
2022-11-04T00:11:23.422Z,100.00
2022-11-04T00:13:49.879Z,100.00
2022-11-04T00:16:34.995Z,100.00
2022-11-04T00:19:01.689Z,100.00
2022-11-04T00:21:46.873Z,100.00
2022-11-04T00:24:31.998Z,100.00
2022-11-04T00:27:17.745Z,100.00
2022-11-04T00:29:44.327Z,100.00
2022-11-04T00:32:29.606Z,100.00
2022-11-04T00:34:56.206Z,100.00
2022-11-04T00:37:22.912Z,100.00
2022-11-04T00:39:49.346Z,100.00
2022-11-04T00:42:15.780Z,100.00
2022-11-04T00:44:42.256Z,100.00
2022-11-04T00:47:08.698Z,100.00
2022-11-04T00:49:35.121Z,100.00
2022-11-04T00:52:01.581Z,100.00
2022-11-04T00:54:28.005Z,100.00
2022-11-04T00:56:55.158Z,100.00
2022-11-04T00:59:21.629Z,100.00
2022-11-04T01:01:48.246Z,100.00
2022-11-04T01:04:14.751Z,100.00
2022-11-04T01:06:41.233Z,100.00
2022-11-04T01:09:08.378Z,100.00
2022-11-04T01:11:34.938Z,100.00
2022-11-04T01:14:01.541Z,100.00
2022-11-04T01:18:54.662Z,100.00
2022-11-04T01:21:21.133Z,100.00
2022-11-04T01:23:47.716Z,100.00
2022-11-04T01:26:21.864Z,100.00
2022-11-04T01:28:48.731Z,100.00
2022-11-04T01:31:16.290Z,100.00
2022-11-04T01:33:42.701Z,100.00
2022-11-04T01:36:09.738Z,100.00
2022-11-04T01:38:36.392Z,100.00
2022-11-04T01:41:03.146Z,100.00
2022-11-04T01:44:02.194Z,100.00
2022-11-04T01:46:36.709Z,100.00
2022-11-04T01:49:15.253Z,100.00
2022-11-04T01:51:41.698Z,100.00
2022-11-04T01:54:08.238Z,100.00
2022-11-04T01:56:34.673Z,100.00
2022-11-04T01:59:04.163Z,100.00
2022-11-04T02:01:31.548Z,100.00
2022-11-04T02:04:21.398Z,100.00
2022-11-04T02:06:48.457Z,100.00
2022-11-04T02:09:15.170Z,100.00
2022-11-04T02:12:00.285Z,100.00
2022-11-04T02:14:26.804Z,100.00
2022-11-04T02:16:53.265Z,100.00
2022-11-04T02:19:19.665Z,100.00
2022-11-04T02:21:49.217Z,100.00
2022-11-04T02:24:27.999Z,100.00
2022-11-04T02:27:13.196Z,100.00
2022-11-04T02:29:39.615Z,100.00
2022-11-04T02:32:27.536Z,100.00
2022-11-04T02:35:17.302Z,100.00
2022-11-04T02:37:46.852Z,100.00
2022-11-04T02:40:31.812Z,100.00
2022-11-04T02:43:02.424Z,100.00
2022-11-04T02:45:37.589Z,100.00
2022-11-04T02:48:17.205Z,100.00
2022-11-04T02:50:54.560Z,100.00
2022-11-04T02:53:21.028Z,100.00
2022-11-04T02:55:48.566Z,100.00
2022-11-04T02:58:16.236Z,100.00
2022-11-04T03:00:42.906Z,100.00
2022-11-04T03:03:11.477Z,100.00
2022-11-04T03:05:38.573Z,100.00
2022-11-04T03:08:14.746Z,100.00
2022-11-04T03:10:42.726Z,100.00
2022-11-04T03:13:29.535Z,100.00
2022-11-04T03:15:59.746Z,100.00
2022-11-04T03:18:41.705Z,100.00
2022-11-04T03:21:09.668Z,100.00
2022-11-04T03:23:36.143Z,100.00
2022-11-04T03:26:07.709Z,100.00
2022-11-04T03:28:37.126Z,100.00
2022-11-04T03:31:04.304Z,100.00
2022-11-04T03:33:47.986Z,100.00
2022-11-04T03:36:14.393Z,100.00
2022-11-04T03:38:40.828Z,100.00
2022-11-04T03:41:12.832Z,100.00
2022-11-04T03:43:39.327Z,100.00
2022-11-04T03:46:05.840Z,100.00
2022-11-04T03:48:32.315Z,100.00
2022-11-04T03:50:58.755Z,100.00
2022-11-04T03:56:08.262Z,100.00
2022-11-04T03:58:53.592Z,100.00
2022-11-04T04:01:26.195Z,100.00
2022-11-04T04:03:58.004Z,100.00
2022-11-04T04:06:25.662Z,100.00
2022-11-04T04:08:53.292Z,100.00
2022-11-04T04:11:20.786Z,100.00
2022-11-04T04:13:54.999Z,100.00
2022-11-04T04:16:24.740Z,100.00
2022-11-04T04:18:55.819Z,100.00
2022-11-04T04:21:28.134Z,100.00
2022-11-04T04:24:13.385Z,100.00
2022-11-04T04:26:58.568Z,100.00
2022-11-04T04:29:25.117Z,100.00
2022-11-04T04:31:52.484Z,100.00
2022-11-04T04:34:23.290Z,100.00
2022-11-04T04:36:54.455Z,100.00
2022-11-04T04:39:40.544Z,100.00
2022-11-04T04:42:26.005Z,100.00
2022-11-04T04:45:03.214Z,100.00
2022-11-04T04:47:35.096Z,100.00
2022-11-04T04:50:01.741Z,100.00
2022-11-04T04:52:31.960Z,100.00
2022-11-04T04:54:58.407Z,100.00
2022-11-04T04:57:24.841Z,100.00
2022-11-04T04:59:51.271Z,100.00
2022-11-04T05:02:17.819Z,100.00
2022-11-04T05:04:44.378Z,100.00
2022-11-04T05:07:10.932Z,100.00
2022-11-04T05:09:37.354Z,100.00
2022-11-04T05:12:04.097Z,100.00
2022-11-04T05:14:30.688Z,100.00
2022-11-04T05:16:57.118Z,100.00
2022-11-04T05:19:23.639Z,100.00
2022-11-04T05:21:50.116Z,100.00
2022-11-04T05:24:16.590Z,100.00
2022-11-04T05:26:43.052Z,100.00
2022-11-04T05:29:09.699Z,100.00
2022-11-04T05:31:36.181Z,100.00
2022-11-04T05:34:02.650Z,100.00
2022-11-04T05:36:29.141Z,100.00
2022-11-04T05:38:58.566Z,100.00
2022-11-04T05:41:27.868Z,100.00
2022-11-04T05:43:55.175Z,100.00
2022-11-04T05:46:21.928Z,100.00
2022-11-04T05:48:48.453Z,100.00
2022-11-04T05:51:15.503Z,100.00
2022-11-04T05:53:42.208Z,100.00
2022-11-04T05:56:08.684Z,100.00
2022-11-04T05:58:35.337Z,100.00
2022-11-04T06:01:23.031Z,100.00
2022-11-04T06:03:49.462Z,100.00
2022-11-04T06:06:15.909Z,100.00
2022-11-04T06:08:45.194Z,100.00
2022-11-04T06:11:11.892Z,100.00
2022-11-04T06:13:38.383Z,100.00
2022-11-04T06:16:04.906Z,100.00
2022-11-04T06:18:31.369Z,100.00
2022-11-04T06:21:13.081Z,100.00
2022-11-04T06:23:39.993Z,100.00
2022-11-04T06:26:06.461Z,100.00
2022-11-04T06:28:32.950Z,100.00
2022-11-04T06:30:59.986Z,100.00
2022-11-04T06:33:26.543Z,100.00
2022-11-04T06:35:53.018Z,100.00
2022-11-04T06:38:19.463Z,100.00
2022-11-04T06:40:45.871Z,100.00
2022-11-04T06:43:12.353Z,100.00
2022-11-04T06:45:38.804Z,100.00
2022-11-04T06:48:05.432Z,100.00
2022-11-04T06:50:31.976Z,100.00
2022-11-04T06:52:58.563Z,100.00
2022-11-04T06:55:25.081Z,100.00
2022-11-04T06:57:51.553Z,100.00
2022-11-04T07:00:18.315Z,100.00
2022-11-04T07:02:44.822Z,100.00
2022-11-04T07:05:12.243Z,100.00
2022-11-04T07:07:38.711Z,100.00
2022-11-04T07:10:05.466Z,100.00
2022-11-04T07:12:31.894Z,100.00
2022-11-04T07:14:58.446Z,100.00
2022-11-04T07:17:24.986Z,100.00
2022-11-04T07:19:51.420Z,100.00
2022-11-04T07:22:17.843Z,100.00
2022-11-04T07:24:44.597Z,100.00
2022-11-04T07:27:11.032Z,100.00
2022-11-04T07:29:37.463Z,100.00
2022-11-04T07:32:04.364Z,100.00
2022-11-04T07:34:30.805Z,100.00
2022-11-04T07:36:57.202Z,100.00
2022-11-04T07:39:23.700Z,100.00
2022-11-04T07:41:50.136Z,100.00
2022-11-04T07:44:16.651Z,100.00
2022-11-04T07:46:43.099Z,100.00
2022-11-04T07:49:09.560Z,100.00
2022-11-04T07:51:35.955Z,100.00
2022-11-04T07:54:02.476Z,100.00
2022-11-04T07:56:28.936Z,100.00
2022-11-04T07:58:55.394Z,100.00
2022-11-04T08:01:23.469Z,100.00
2022-11-04T08:03:50.422Z,100.00
2022-11-04T08:06:17.270Z,100.00
2022-11-04T08:08:43.990Z,100.00
2022-11-04T08:11:17.751Z,100.00
2022-11-04T08:13:44.939Z,100.00
2022-11-04T08:16:13.373Z,100.00
2022-11-04T08:18:40.180Z,100.00
2022-11-04T08:21:07.088Z,100.00
2022-11-04T08:23:34.327Z,100.00
2022-11-04T08:26:01.087Z,100.00
2022-11-04T08:28:27.675Z,100.00
2022-11-04T08:30:58.472Z,100.00
2022-11-04T08:33:25.611Z,100.00
2022-11-04T08:35:52.772Z,100.00
2022-11-04T08:38:19.313Z,100.00
2022-11-04T08:40:45.756Z,100.00
2022-11-04T08:43:12.403Z,100.00
2022-11-04T08:45:42.943Z,100.00
2022-11-04T08:48:09.930Z,100.00
2022-11-04T08:50:36.696Z,100.00
2022-11-04T08:53:04.212Z,100.00
2022-11-04T08:55:31.147Z,100.00
2022-11-04T08:57:57.730Z,100.00
2022-11-04T09:00:24.261Z,100.00
2022-11-04T09:02:50.748Z,100.00
2022-11-04T09:05:17.254Z,100.00
2022-11-04T09:07:43.653Z,100.00
2022-11-04T09:10:10.944Z,100.00
2022-11-04T09:12:37.379Z,100.00
2022-11-04T09:15:05.569Z,100.00
2022-11-04T09:17:32.020Z,100.00
2022-11-04T09:19:58.466Z,100.00
2022-11-04T09:22:24.885Z,100.00
2022-11-04T09:24:51.394Z,100.00
2022-11-04T09:27:18.048Z,100.00
2022-11-04T09:29:44.592Z,100.00
2022-11-04T09:32:11.052Z,100.00
2022-11-04T09:34:37.482Z,100.00
2022-11-04T09:37:03.895Z,100.00
2022-11-04T09:39:30.338Z,100.00
2022-11-04T09:42:00.894Z,100.00
2022-11-04T09:45:14.935Z,100.00
2022-11-04T09:47:32.862Z,100.00
2022-11-04T09:49:59.427Z,100.00
2022-11-04T09:52:26.966Z,100.00
2022-11-04T09:54:53.600Z,100.00
2022-11-04T09:57:20.225Z,100.00
2022-11-04T09:59:47.137Z,100.00
2022-11-04T10:02:32.301Z,100.00
2022-11-04T10:05:14.236Z,72.41
2022-11-04T10:07:49.826Z,80.28
2022-11-04T10:10:19.450Z,73.57
2022-11-04T10:12:54.830Z,69.76
2022-11-04T10:15:36.710Z,75.67
2022-11-04T10:18:06.815Z,79.78
2022-11-04T10:20:33.235Z,77.87
2022-11-04T10:22:59.697Z,77.26
2022-11-04T10:25:31.024Z,72.42
2022-11-04T10:27:57.681Z,72.70
2022-11-04T10:30:24.838Z,78.52
2022-11-04T10:33:09.952Z,91.78
2022-11-04T10:35:39.649Z,90.72
2022-11-04T10:38:26.306Z,99.87
2022-11-04T10:40:53.857Z,100.00
2022-11-04T10:43:40.547Z,100.00
2022-11-04T10:46:07.036Z,100.00
2022-11-04T10:48:38.852Z,95.27
2022-11-04T10:51:05.326Z,93.02
2022-11-04T10:53:32.566Z,100.00
2022-11-04T10:55:59.095Z,100.00
2022-11-04T10:58:26.322Z,100.00
2022-11-04T11:00:52.959Z,100.00
2022-11-04T11:03:25.037Z,100.00
2022-11-04T11:05:52.405Z,100.00
2022-11-04T11:08:31.919Z,100.00
2022-11-04T11:10:58.380Z,100.00
2022-11-04T11:13:28.181Z,100.00
2022-11-04T11:16:04.758Z,100.00
2022-11-04T11:18:31.267Z,100.00
2022-11-04T11:21:07.835Z,100.00
2022-11-04T11:23:38.384Z,100.00
2022-11-04T11:26:06.038Z,100.00
2022-11-04T11:28:38.078Z,100.00
2022-11-04T11:31:11.898Z,100.00
2022-11-04T11:33:38.790Z,100.00
2022-11-04T11:36:12.260Z,100.00
2022-11-04T11:38:40.121Z,100.00
2022-11-04T11:41:29.238Z,100.00
2022-11-04T11:43:56.290Z,100.00
2022-11-04T11:46:23.380Z,100.00
2022-11-04T11:48:51.067Z,100.00
2022-11-04T11:51:30.572Z,100.00
2022-11-04T11:54:07.856Z,100.00
2022-11-04T11:57:07.392Z,100.00
2022-11-04T12:02:48.070Z,100.00
2022-11-04T12:11:03.149Z,100.00
2022-11-04T12:13:42.926Z,100.00
2022-11-04T12:16:15.353Z,100.00
2022-11-04T12:18:41.792Z,100.00
2022-11-04T12:21:21.479Z,100.00
2022-11-04T12:23:55.099Z,100.00
2022-11-04T12:26:37.073Z,100.00
2022-11-04T12:29:03.465Z,100.00
2022-11-04T12:31:39.971Z,100.00
2022-11-04T12:34:06.350Z,100.00
2022-11-04T12:36:45.135Z,100.00
2022-11-04T12:39:15.564Z,100.00
2022-11-04T12:42:06.897Z,100.00
2022-11-04T12:44:38.563Z,100.00
2022-11-04T12:47:05.022Z,100.00
2022-11-04T12:50:04.096Z,100.00
2022-11-04T12:52:30.503Z,100.00
2022-11-04T12:55:11.645Z,100.00
2022-11-04T12:57:58.538Z,100.00
2022-11-04T13:00:27.241Z,100.00
2022-11-04T13:02:57.976Z,100.00
2022-11-04T13:05:36.703Z,100.00
2022-11-04T13:08:03.102Z,100.00
2022-11-04T13:10:40.434Z,100.00
2022-11-04T13:13:07.100Z,100.00
2022-11-04T13:15:36.078Z,100.00
2022-11-04T13:18:05.161Z,100.00
2022-11-04T13:20:36.793Z,100.00
2022-11-04T13:23:04.636Z,100.00
2022-11-04T13:25:33.757Z,100.00
2022-11-04T13:28:00.306Z,100.00
2022-11-04T13:30:29.885Z,100.00
2022-11-04T13:33:02.619Z,100.00
2022-11-04T13:35:49.992Z,100.00
2022-11-04T13:38:22.678Z,100.00
2022-11-04T13:40:52.710Z,100.00
2022-11-04T13:43:38.432Z,100.00
2022-11-04T13:46:26.338Z,100.00
2022-11-04T13:48:54.491Z,100.00
2022-11-04T13:51:20.982Z,100.00
2022-11-04T13:53:52.090Z,100.00
2022-11-04T13:56:33.470Z,100.00
2022-11-04T13:59:02.049Z,100.00
2022-11-04T14:01:30.467Z,100.00
2022-11-04T14:04:18.049Z,100.00
2022-11-04T14:06:47.846Z,100.00
2022-11-04T14:09:32.574Z,100.00
2022-11-04T14:12:14.191Z,100.00
2022-11-04T14:14:41.257Z,100.00
2022-11-04T14:17:26.465Z,100.00
2022-11-04T14:19:56.097Z,100.00
2022-11-04T14:22:30.282Z,100.00
2022-11-04T14:25:01.460Z,100.00
2022-11-04T14:27:31.027Z,100.00
2022-11-04T14:29:57.492Z,100.00
2022-11-04T14:32:25.628Z,100.00
2022-11-04T14:34:59.393Z,100.00
2022-11-04T14:37:30.917Z,100.00
2022-11-04T14:39:58.284Z,100.00
2022-11-04T14:42:43.444Z,100.00
2022-11-04T14:45:09.986Z,100.00
2022-11-04T14:47:37.990Z,100.00
2022-11-04T14:50:07.616Z,100.00
2022-11-04T14:52:54.199Z,100.00
2022-11-04T14:55:22.154Z,100.00
2022-11-04T14:57:52.952Z,100.00
2022-11-04T15:00:28.271Z,100.00
2022-11-04T15:03:00.908Z,100.00
2022-11-04T15:05:28.385Z,100.00
2022-11-04T15:07:54.874Z,100.00
2022-11-04T15:10:21.346Z,100.00
2022-11-04T15:12:50.809Z,100.00
2022-11-04T15:15:25.553Z,100.00
2022-11-04T15:17:51.923Z,100.00
2022-11-04T15:20:30.484Z,100.00
2022-11-04T15:22:58.665Z,100.00
2022-11-04T15:25:25.237Z,100.00
2022-11-04T15:27:51.699Z,100.00
2022-11-04T15:30:22.834Z,100.00
2022-11-04T15:32:53.188Z,100.00
2022-11-04T15:35:19.633Z,100.00
2022-11-04T15:37:46.235Z,100.00
2022-11-04T15:40:13.686Z,100.00
2022-11-04T15:42:40.618Z,100.00
2022-11-04T15:45:37.299Z,100.00
2022-11-04T15:48:22.424Z,100.00
2022-11-04T15:51:06.534Z,100.00
2022-11-04T15:53:47.069Z,100.00
2022-11-04T15:56:14.957Z,100.00
2022-11-04T15:58:41.739Z,100.00
2022-11-04T16:01:08.220Z,100.00
2022-11-04T16:03:34.678Z,100.00
2022-11-04T16:06:05.314Z,100.00
2022-11-04T16:08:31.979Z,100.00
2022-11-04T16:11:08.537Z,100.00
2022-11-04T16:13:35.136Z,100.00
2022-11-04T16:16:19.611Z,100.00
2022-11-04T16:18:50.924Z,100.00
2022-11-04T16:21:20.474Z,100.00
2022-11-04T16:23:47.872Z,100.00
2022-11-04T16:26:14.326Z,100.00
2022-11-04T16:28:40.788Z,100.00
2022-11-04T16:31:08.538Z,100.00
2022-11-04T16:33:35.049Z,100.00
2022-11-04T16:36:01.819Z,100.00
2022-11-04T16:38:28.264Z,100.00
2022-11-04T16:40:54.704Z,100.00
2022-11-04T16:43:21.621Z,100.00
2022-11-04T16:45:53.558Z,100.00
2022-11-04T16:48:20.501Z,100.00
2022-11-04T16:50:47.131Z,100.00
2022-11-04T16:53:13.678Z,100.00
2022-11-04T16:55:40.586Z,100.00
2022-11-04T16:58:07.014Z,100.00
2022-11-04T17:00:33.533Z,100.00
2022-11-04T17:03:00.711Z,100.00
2022-11-04T17:05:27.508Z,100.00
2022-11-04T17:07:57.677Z,100.00
2022-11-04T17:10:29.919Z,100.00
2022-11-04T17:12:56.625Z,100.00
2022-11-04T17:15:23.034Z,100.00
2022-11-04T17:17:49.457Z,100.00
2022-11-04T17:20:17.657Z,100.00
2022-11-04T17:22:44.510Z,100.00
2022-11-04T17:25:14.307Z,100.00
2022-11-04T17:27:41.244Z,100.00
2022-11-04T17:30:08.010Z,100.00
2022-11-04T17:32:34.437Z,100.00
2022-11-04T17:35:00.977Z,100.00
2022-11-04T17:37:27.479Z,100.00
2022-11-04T17:39:53.883Z,100.00
2022-11-04T17:42:39.160Z,100.00
2022-11-04T17:45:05.694Z,100.00
2022-11-04T17:47:35.243Z,100.00
2022-11-04T17:50:01.874Z,100.00
2022-11-04T17:52:28.343Z,100.00
2022-11-04T17:54:54.744Z,100.00
2022-11-04T17:57:21.183Z,100.00
2022-11-04T17:59:47.609Z,100.00
2022-11-04T18:02:14.130Z,100.00
2022-11-04T18:04:40.660Z,100.00
2022-11-04T18:07:07.074Z,100.00
2022-11-04T18:09:35.074Z,100.00
2022-11-04T18:12:20.310Z,100.00
2022-11-04T18:14:46.736Z,100.00
2022-11-04T18:17:13.203Z,100.00
2022-11-04T18:19:39.615Z,100.00
2022-11-04T18:22:06.221Z,100.00
2022-11-04T18:24:32.728Z,100.00
2022-11-04T18:27:02.126Z,100.00
2022-11-04T18:29:28.501Z,100.00
2022-11-04T18:31:55.082Z,100.00
2022-11-04T18:34:21.509Z,100.00
2022-11-04T18:36:48.413Z,100.00
2022-11-04T18:39:15.695Z,100.00
2022-11-04T18:41:42.406Z,100.00
2022-11-04T18:44:09.459Z,100.00
2022-11-04T18:46:35.924Z,100.00
2022-11-04T18:49:02.409Z,100.00
2022-11-04T18:51:28.972Z,100.00
2022-11-04T18:53:55.440Z,100.00
2022-11-04T18:56:22.477Z,100.00
2022-11-04T18:58:49.042Z,100.00
2022-11-04T19:01:20.376Z,100.00
2022-11-04T19:03:47.044Z,100.00
2022-11-04T19:06:15.519Z,100.00
2022-11-04T19:08:46.472Z,100.00
2022-11-04T19:11:17.629Z,100.00
2022-11-04T19:13:44.195Z,100.00
2022-11-04T19:16:11.743Z,100.00
2022-11-04T19:18:38.416Z,100.00
2022-11-04T19:21:05.819Z,100.00
2022-11-04T19:23:32.693Z,100.00
2022-11-04T19:26:02.152Z,100.00
2022-11-04T19:28:37.568Z,100.00
2022-11-04T19:31:11.708Z,100.00
2022-11-04T19:33:38.485Z,100.00
2022-11-04T19:36:05.572Z,100.00
2022-11-04T19:38:32.064Z,100.00
2022-11-04T19:41:02.200Z,100.00
2022-11-04T19:43:28.607Z,100.00
2022-11-04T19:45:57.710Z,100.00
2022-11-04T19:48:26.465Z,100.00
2022-11-04T19:50:52.913Z,100.00
2022-11-04T19:53:19.329Z,100.00
2022-11-04T19:55:53.086Z,100.00
2022-11-04T19:58:19.562Z,100.00
2022-11-04T20:00:47.225Z,100.00
2022-11-04T20:03:14.147Z,100.00
2022-11-04T20:05:41.560Z,100.00
2022-11-04T20:08:08.752Z,100.00
2022-11-04T20:10:37.098Z,100.00
2022-11-04T20:13:22.235Z,100.00
2022-11-04T20:15:48.638Z,100.00
2022-11-04T20:18:15.024Z,100.00
2022-11-04T20:20:41.474Z,100.00
2022-11-04T20:23:08.916Z,100.00
2022-11-04T20:25:35.402Z,100.00
2022-11-04T20:28:02.295Z,100.00
2022-11-04T20:30:28.747Z,100.00
2022-11-04T20:32:55.186Z,100.00
2022-11-04T20:35:21.738Z,100.00
2022-11-04T20:37:48.166Z,100.00
2022-11-04T20:40:14.654Z,100.00
2022-11-04T20:42:47.793Z,100.00
2022-11-04T20:45:15.146Z,100.00
2022-11-04T20:47:42.148Z,100.00
2022-11-04T20:50:09.771Z,100.00
2022-11-04T20:52:37.276Z,100.00
2022-11-04T20:55:06.327Z,100.00
2022-11-04T20:57:33.897Z,100.00
2022-11-04T21:00:00.459Z,100.00
2022-11-04T21:02:27.036Z,100.00
2022-11-04T21:04:53.608Z,100.00
2022-11-04T21:07:20.183Z,100.00
2022-11-04T21:09:46.673Z,100.00
2022-11-04T21:12:13.167Z,100.00
2022-11-04T21:14:39.575Z,100.00
2022-11-04T21:17:06.024Z,100.00
2022-11-04T21:19:32.710Z,100.00
2022-11-04T21:21:59.202Z,100.00
2022-11-04T21:24:25.602Z,100.00
2022-11-04T21:26:52.029Z,100.00
2022-11-04T21:29:19.706Z,100.00
2022-11-04T21:31:46.776Z,100.00
2022-11-04T21:34:13.376Z,100.00
2022-11-04T21:36:40.091Z,100.00
2022-11-04T21:39:06.552Z,100.00
2022-11-04T21:41:37.393Z,100.00
2022-11-04T21:44:05.682Z,100.00
2022-11-04T21:46:32.746Z,100.00
2022-11-04T21:48:59.272Z,100.00
2022-11-04T21:51:28.897Z,100.00
2022-11-04T21:53:56.252Z,100.00
2022-11-04T21:56:23.824Z,100.00
2022-11-04T21:58:51.035Z,100.00
2022-11-04T22:01:18.770Z,100.00
2022-11-04T22:03:48.896Z,100.00
2022-11-04T22:06:15.325Z,100.00
2022-11-04T22:08:46.081Z,100.00
2022-11-04T22:11:16.820Z,100.00
2022-11-04T22:13:43.274Z,100.00
2022-11-04T22:16:10.698Z,100.00
2022-11-04T22:18:37.119Z,100.00
2022-11-04T22:21:05.449Z,100.00
2022-11-04T22:23:33.372Z,100.00
2022-11-04T22:26:03.590Z,100.00
2022-11-04T22:28:30.020Z,100.00
2022-11-04T22:30:56.477Z,100.00
2022-11-04T22:33:26.237Z,100.00
2022-11-04T22:35:56.907Z,100.00
2022-11-04T22:38:23.364Z,100.00
2022-11-04T22:40:57.165Z,100.00
2022-11-04T22:43:24.906Z,100.00
2022-11-04T22:45:52.064Z,100.00
2022-11-04T22:48:18.796Z,100.00
2022-11-04T22:50:45.529Z,100.00
2022-11-04T22:53:12.441Z,100.00
2022-11-04T22:55:38.957Z,100.00
2022-11-04T22:58:05.431Z,100.00
2022-11-04T23:00:31.864Z,100.00
2022-11-04T23:02:58.548Z,100.00
2022-11-04T23:05:27.766Z,100.00
2022-11-04T23:07:54.425Z,100.00
2022-11-04T23:10:39.607Z,100.00
2022-11-04T23:13:24.616Z,100.00
2022-11-04T23:16:09.788Z,100.00
2022-11-04T23:18:42.166Z,100.00
2022-11-04T23:21:31.410Z,100.00
2022-11-04T23:24:16.558Z,100.00
2022-11-04T23:26:43.117Z,100.00
2022-11-04T23:29:28.202Z,100.00
2022-11-04T23:31:54.651Z,100.00
2022-11-04T23:34:39.810Z,100.00
2022-11-04T23:37:12.205Z,100.00
2022-11-04T23:39:39.193Z,100.00
2022-11-04T23:42:18.103Z,100.00
2022-11-04T23:45:12.894Z,100.00
2022-11-04T23:47:58.674Z,100.00
2022-11-04T23:50:44.226Z,100.00
2022-11-04T23:53:32.952Z,100.00
2022-11-04T23:56:18.029Z,100.00
2022-11-04T23:59:03.073Z,100.00
